Time;durP1;ratioP1;P1;durP2;ratioP2;P2;SDS_P1;SDS_P2;PMS_P1;PMS_P2;Temp;Humidity;BMP_temperature;BMP_pressure;BME280_temperature;BME280_humidity;BME280_pressure;Samples;Min_cycle;Max_cycle;Signal;HPM_P1;HPM_P2
2022/02/21 00:01:25;;;;;;;2.20;1.00;;;9.10;99.90;;;;;;5009757;28;20229;-88
2022/02/21 00:03:53;;;;;;;1.47;0.80;;;9.10;99.90;;;;;;5032697;28;20310;-89
2022/02/21 00:06:19;;;;;;;1.30;0.70;;;9.10;99.90;;;;;;5031537;28;20229;-88
2022/02/21 00:08:47;;;;;;;5.20;0.87;;;9.00;99.90;;;;;;5031810;28;20202;-86
2022/02/21 00:11:14;;;;;;;1.70;0.60;;;9.10;99.90;;;;;;5032169;28;20179;-87
2022/02/21 00:13:40;;;;;;;1.70;0.70;;;9.00;99.90;;;;;;5032061;28;20206;-87
2022/02/21 00:16:12;;;;;;;3.83;0.90;;;9.00;99.90;;;;;;5015647;28;20256;-88
2022/02/21 00:18:39;;;;;;;3.13;0.70;;;9.00;99.90;;;;;;5032199;28;20206;-88
2022/02/21 00:21:14;;;;;;;0.93;0.50;;;9.10;99.90;;;;;;5032362;28;20232;-87
2022/02/21 00:23:40;;;;;;;2.50;0.70;;;9.20;99.90;;;;;;5015566;28;20631;-87
2022/02/21 00:26:10;;;;;;;2.00;0.70;;;9.20;99.90;;;;;;5032455;28;20181;-88
2022/02/21 00:28:42;;;;;;;4.10;0.70;;;9.20;99.90;;;;;;5021880;28;20238;-88
2022/02/21 00:31:16;;;;;;;2.70;0.93;;;9.20;99.90;;;;;;4999698;28;20269;-87
2022/02/21 00:33:44;;;;;;;1.77;0.70;;;9.30;99.90;;;;;;4999712;28;20174;-88
2022/02/21 00:36:11;;;;;;;2.40;0.70;;;9.30;99.90;;;;;;5016911;28;20168;-88
2022/02/21 00:38:48;;;;;;;1.17;0.43;;;9.30;99.90;;;;;;4999617;28;20210;-87
2022/02/21 00:41:20;;;;;;;0.80;0.50;;;9.30;99.90;;;;;;4999327;28;20225;-86
2022/02/21 00:43:46;;;;;;;2.30;0.80;;;9.30;99.90;;;;;;4999683;28;20262;-88
2022/02/21 00:46:12;;;;;;;2.87;0.60;;;9.40;99.90;;;;;;4998995;28;20191;-87
2022/02/21 00:48:51;;;;;;;4.13;1.00;;;9.30;99.90;;;;;;4999110;28;20574;-87
2022/02/21 00:51:17;;;;;;;3.90;1.00;;;9.20;99.90;;;;;;4998769;28;20186;-87
2022/02/21 00:53:48;;;;;;;0.80;0.60;;;9.10;99.90;;;;;;4998981;28;20167;-89
2022/02/21 00:56:15;;;;;;;2.43;0.60;;;9.00;99.90;;;;;;5016456;28;20616;-87
2022/02/21 00:58:44;;;;;;;1.40;0.37;;;8.80;99.90;;;;;;5011852;28;20229;-88
2022/02/21 01:01:11;;;;;;;1.70;0.50;;;8.40;99.90;;;;;;5018556;28;20198;-90
2022/02/21 01:03:36;;;;;;;0.43;0.30;;;8.30;99.90;;;;;;5018131;28;20254;-88
2022/02/21 01:06:04;;;;;;;1.50;0.63;;;8.20;99.90;;;;;;5017553;28;20205;-89
2022/02/21 01:08:30;;;;;;;1.60;0.53;;;8.00;99.90;;;;;;5017943;28;20684;-88
2022/02/21 01:10:56;;;;;;;0.77;0.40;;;7.80;99.90;;;;;;5018159;28;20178;-88
2022/02/21 01:13:31;;;;;;;0.80;0.30;;;7.70;99.90;;;;;;5018458;28;20185;-86
2022/02/21 01:16:03;;;;;;;1.77;0.47;;;7.50;99.90;;;;;;5018275;28;20269;-88
2022/02/21 01:18:30;;;;;;;1.83;0.63;;;7.40;99.90;;;;;;5017944;28;20225;-88
2022/02/21 01:20:57;;;;;;;2.77;0.53;;;7.40;99.90;;;;;;5018042;28;20202;-87
2022/02/21 01:23:32;;;;;;;1.70;0.40;;;7.30;99.90;;;;;;5017994;28;20181;-87
2022/02/21 01:25:58;;;;;;;2.40;0.40;;;7.20;99.90;;;;;;5018025;28;20185;-88
2022/02/21 01:28:25;;;;;;;1.23;0.30;;;7.20;99.90;;;;;;5017761;28;20194;-87
2022/02/21 01:30:57;;;;;;;0.50;0.37;;;7.10;99.90;;;;;;5017828;28;20274;-85
2022/02/21 01:33:25;;;;;;;1.10;0.50;;;7.00;99.90;;;;;;5035675;28;20166;-88
2022/02/21 01:35:52;;;;;;;1.13;0.40;;;7.00;99.90;;;;;;5017659;28;20186;-89
2022/02/21 01:38:23;;;;;;;1.67;0.50;;;7.00;99.90;;;;;;5034173;28;20203;-86
2022/02/21 01:40:51;;;;;;;2.90;0.57;;;7.00;99.90;;;;;;5016842;28;20206;-87
2022/02/21 01:43:18;;;;;;;0.80;0.50;;;7.00;99.90;;;;;;5018033;28;20670;-86
2022/02/21 01:45:46;;;;;;;0.40;0.40;;;7.00;99.90;;;;;;5017597;28;20313;-88
2022/02/21 01:48:23;;;;;;;0.70;0.43;;;6.90;99.90;;;;;;5017585;28;20201;-89
2022/02/21 01:50:50;;;;;;;0.90;0.37;;;7.00;99.90;;;;;;5017673;28;20174;-88
2022/02/21 01:53:28;;;;;;;1.00;0.40;;;6.90;99.90;;;;;;5017584;28;20588;-86
2022/02/21 01:55:58;;;;;;;0.93;0.33;;;6.90;99.90;;;;;;5017731;28;20166;-89
2022/02/21 01:58:32;;;;;;;2.17;0.67;;;7.00;99.90;;;;;;5017190;28;20198;-89
2022/02/21 02:01:03;;;;;;;0.70;0.50;;;7.00;99.90;;;;;;5017158;28;20206;-89
2022/02/21 02:03:28;;;;;;;1.03;0.40;;;6.90;99.90;;;;;;5017147;28;20588;-86
2022/02/21 02:05:54;;;;;;;1.63;0.60;;;6.90;99.90;;;;;;5017414;28;20181;-88
2022/02/21 02:08:23;;;;;;;1.50;0.40;;;7.00;99.90;;;;;;5017177;28;20981;-88
2022/02/21 02:10:49;;;;;;;0.50;0.40;;;6.90;99.90;;;;;;5017051;28;20189;-90
2022/02/21 02:13:20;;;;;;;2.13;0.50;;;6.90;99.90;;;;;;5016456;28;20178;-88
2022/02/21 02:15:51;;;;;;;0.60;0.40;;;6.90;99.90;;;;;;5016835;28;20202;-89
2022/02/21 02:18:23;;;;;;;0.50;0.30;;;6.90;99.90;;;;;;5017088;28;20225;-89
2022/02/21 02:20:54;;;;;;;0.50;0.40;;;6.90;99.90;;;;;;5034639;28;20197;-87
2022/02/21 02:23:20;;;;;;;0.90;0.57;;;6.90;99.90;;;;;;5016890;28;20170;-89
2022/02/21 02:25:47;;;;;;;0.77;0.47;;;6.90;99.90;;;;;;5016948;28;20223;-90
2022/02/21 02:28:23;;;;;;;1.03;0.50;;;6.90;99.90;;;;;;5016709;28;20197;-89
2022/02/21 02:30:49;;;;;;;1.70;0.53;;;6.80;99.90;;;;;;5009040;28;20174;-89
2022/02/21 02:33:18;;;;;;;1.03;0.40;;;6.90;99.90;;;;;;5016839;28;20178;-89
2022/02/21 02:35:44;;;;;;;1.20;0.40;;;6.80;99.90;;;;;;5016712;28;20186;-88
2022/02/21 02:38:39;;;;;;;1.00;0.43;;;6.90;99.90;;;;;;5016493;28;20207;-91
2022/02/21 02:41:11;;;;;;;3.40;0.53;;;6.80;99.90;;;;;;5016754;28;20202;-88
2022/02/21 02:43:41;;;;;;;1.13;0.50;;;6.80;99.90;;;;;;5016858;28;20579;-88
2022/02/21 02:46:30;;;;;;;1.33;0.50;;;6.70;99.90;;;;;;5016548;28;20262;-87
2022/02/21 02:48:56;;;;;;;2.40;0.40;;;6.70;99.90;;;;;;5016910;28;20166;-88
2022/02/21 02:51:24;;;;;;;0.73;0.60;;;6.70;99.90;;;;;;5016446;28;20237;-87
2022/02/21 02:54:07;;;;;;;1.40;0.40;;;6.70;99.90;;;;;;5016562;28;20170;-90
2022/02/21 02:56:36;;;;;;;1.80;0.40;;;6.70;99.90;;;;;;5016426;28;20174;-89
2022/02/21 02:59:09;;;;;;;2.60;0.53;;;6.70;99.90;;;;;;5016499;28;20169;-86
2022/02/21 03:01:39;;;;;;;1.93;0.50;;;6.50;99.90;;;;;;5016547;28;20166;-89
2022/02/21 03:04:08;;;;;;;2.00;0.70;;;6.30;99.90;;;;;;5016393;28;20280;-90
2022/02/21 03:06:36;;;;;;;1.63;0.90;;;6.30;99.90;;;;;;5016275;28;20163;-88
2022/02/21 03:09:20;;;;;;;8.97;1.40;;;6.30;99.90;;;;;;5016538;28;20166;-87
2022/02/21 03:11:54;;;;;;;2.17;0.70;;;6.10;99.90;;;;;;5016337;28;20192;-90
2022/02/21 03:14:26;;;;;;;9.67;1.73;;;6.10;99.90;;;;;;5016502;28;20166;-90
2022/02/21 03:17:00;;;;;;;3.73;1.00;;;6.10;99.90;;;;;;5016454;28;20252;-90
2022/02/21 03:19:42;;;;;;;4.00;1.17;;;6.00;99.90;;;;;;5016572;28;20209;-87
2022/02/21 03:22:09;;;;;;;7.10;1.17;;;6.00;99.90;;;;;;5016526;28;20174;-91
2022/02/21 03:24:35;;;;;;;3.00;0.80;;;5.90;99.90;;;;;;5372240;23;20320;-86
2022/02/21 03:27:01;;;;;;;4.97;1.20;;;6.00;99.90;;;;;;5034781;28;20265;-85
2022/02/21 03:29:26;;;;;;;3.17;0.93;;;6.00;99.90;;;;;;5036946;28;20574;-84
2022/02/21 03:31:52;;;;;;;5.77;1.13;;;5.90;99.90;;;;;;5052279;28;20247;-84
2022/02/21 03:34:17;;;;;;;6.70;1.20;;;6.00;99.90;;;;;;5054264;28;20185;-85
2022/02/21 03:36:43;;;;;;;6.50;1.20;;;5.90;99.90;;;;;;5033630;28;20209;-85
2022/02/21 03:39:09;;;;;;;8.57;1.13;;;5.80;99.90;;;;;;5016320;28;20174;-85
2022/02/21 03:41:35;;;;;;;7.63;1.37;;;5.80;99.90;;;;;;5034238;28;20233;-85
2022/02/21 03:44:03;;;;;;;3.30;0.73;;;5.80;99.90;;;;;;5033982;28;20178;-84
2022/02/21 03:46:29;;;;;;;1.73;0.50;;;5.70;99.90;;;;;;5016329;28;20185;-85
2022/02/21 03:48:55;;;;;;;2.10;0.50;;;5.50;99.90;;;;;;5016341;28;20175;-84
2022/02/21 03:51:21;;;;;;;2.77;1.13;;;5.40;99.90;;;;;;5016567;28;20178;-85
2022/02/21 03:53:47;;;;;;;4.30;0.93;;;5.30;99.90;;;;;;5016002;28;20190;-85
2022/02/21 03:56:12;;;;;;;6.70;1.30;;;5.20;99.90;;;;;;5016533;28;20209;-86
2022/02/21 03:58:41;;;;;;;9.53;1.13;;;5.10;99.90;;;;;;5015988;28;20182;-85
2022/02/21 04:01:07;;;;;;;5.93;1.20;;;5.10;99.90;;;;;;5016480;28;20705;-85
2022/02/21 04:03:32;;;;;;;5.37;1.60;;;5.10;99.90;;;;;;5018455;28;20264;-85
2022/02/21 04:05:58;;;;;;;6.23;1.20;;;5.00;99.90;;;;;;5037978;28;20605;-85
2022/02/21 04:08:23;;;;;;;8.10;1.67;;;5.00;99.90;;;;;;5019954;28;20193;-85
2022/02/21 04:10:49;;;;;;;9.43;1.57;;;5.00;99.90;;;;;;5019930;28;20185;-85
2022/02/21 04:13:15;;;;;;;8.03;1.40;;;5.00;99.90;;;;;;5037477;28;20175;-84
2022/02/21 04:15:40;;;;;;;10.97;1.93;;;5.00;99.90;;;;;;5037385;28;20510;-85
2022/02/21 04:18:06;;;;;;;11.27;1.97;;;5.00;99.90;;;;;;5019858;28;20258;-85
2022/02/21 04:20:32;;;;;;;11.87;1.83;;;4.90;99.90;;;;;;5019733;28;20210;-85
2022/02/21 04:22:58;;;;;;;7.20;1.60;;;5.00;99.90;;;;;;5037447;28;20178;-85
2022/02/21 04:25:23;;;;;;;11.43;2.20;;;5.00;99.90;;;;;;5019634;28;20234;-85
2022/02/21 04:27:51;;;;;;;11.67;2.67;;;5.00;99.90;;;;;;5019390;28;20210;-84
2022/02/21 04:30:20;;;;;;;9.50;1.80;;;4.90;99.90;;;;;;5019411;28;20411;-84
2022/02/21 04:32:46;;;;;;;11.97;2.50;;;4.90;99.90;;;;;;5037430;28;20183;-85
2022/02/21 04:35:12;;;;;;;10.77;2.07;;;5.00;99.90;;;;;;5019417;28;20656;-83
2022/02/21 04:37:38;;;;;;;14.10;2.17;;;5.00;99.90;;;;;;5019520;28;20528;-84
2022/02/21 04:40:06;;;;;;;14.90;2.20;;;4.90;99.90;;;;;;5019321;28;20214;-85
2022/02/21 04:42:32;;;;;;;11.00;1.90;;;4.80;99.90;;;;;;5019053;28;20501;-85
2022/02/21 04:44:57;;;;;;;13.77;2.37;;;4.80;99.90;;;;;;5018900;28;20197;-85
2022/02/21 04:47:23;;;;;;;8.07;1.90;;;4.80;99.90;;;;;;5019082;28;20175;-84
2022/02/21 04:49:49;;;;;;;10.93;2.30;;;4.80;99.90;;;;;;5019389;28;20174;-85
2022/02/21 04:52:15;;;;;;;8.07;1.80;;;4.80;99.90;;;;;;5019397;28;20633;-85
2022/02/21 04:54:40;;;;;;;9.63;2.40;;;4.80;99.90;;;;;;5019120;28;20317;-85
2022/02/21 04:57:07;;;;;;;13.70;1.90;;;4.90;99.90;;;;;;5019008;28;20182;-84
2022/02/21 04:59:33;;;;;;;12.93;2.20;;;4.90;99.90;;;;;;5018131;28;20214;-84
2022/02/21 05:02:00;;;;;;;14.47;3.00;;;4.90;99.90;;;;;;5018924;28;20187;-85
2022/02/21 05:04:26;;;;;;;11.07;2.17;;;5.00;99.90;;;;;;5036910;28;20167;-85
2022/02/21 05:06:52;;;;;;;12.20;2.17;;;5.00;99.90;;;;;;5018564;28;20261;-86
2022/02/21 05:09:18;;;;;;;10.23;1.87;;;5.00;99.90;;;;;;5036748;28;20202;-85
2022/02/21 05:11:44;;;;;;;14.27;2.83;;;5.00;99.90;;;;;;5018963;28;20210;-85
2022/02/21 05:14:09;;;;;;;14.10;2.20;;;5.00;99.90;;;;;;5018562;28;20182;-85
2022/02/21 05:16:35;;;;;;;11.80;2.70;;;5.00;99.90;;;;;;5018981;28;20174;-85
2022/02/21 05:19:02;;;;;;;11.00;2.27;;;4.90;99.90;;;;;;5018889;28;20265;-85
2022/02/21 05:21:31;;;;;;;13.60;2.27;;;5.00;99.90;;;;;;5018570;28;20190;-84
2022/02/21 05:23:58;;;;;;;11.50;2.40;;;4.90;99.90;;;;;;5018725;28;20602;-85
2022/02/21 05:26:24;;;;;;;13.47;2.47;;;4.90;99.90;;;;;;5018054;28;20274;-85
2022/02/21 05:28:50;;;;;;;10.00;2.53;;;4.90;99.90;;;;;;5018104;28;20281;-85
2022/02/21 05:31:16;;;;;;;12.77;2.57;;;4.90;99.90;;;;;;5035996;28;20563;-84
2022/02/21 05:33:42;;;;;;;17.97;2.70;;;4.90;99.90;;;;;;5018612;28;20279;-85
2022/02/21 05:36:07;;;;;;;14.73;2.53;;;4.90;99.90;;;;;;5018467;28;20187;-84
2022/02/21 05:38:33;;;;;;;12.80;2.43;;;4.90;99.90;;;;;;5018321;28;20174;-85
2022/02/21 05:40:59;;;;;;;16.00;2.27;;;4.90;99.90;;;;;;5018199;28;20221;-85
2022/02/21 05:43:24;;;;;;;7.83;2.27;;;4.80;99.90;;;;;;5017576;28;20269;-85
2022/02/21 05:45:50;;;;;;;11.93;2.20;;;4.70;99.90;;;;;;5017864;28;20233;-85
2022/02/21 05:48:16;;;;;;;13.17;2.37;;;4.80;99.90;;;;;;5018205;28;20175;-85
2022/02/21 05:50:41;;;;;;;15.90;2.87;;;4.80;99.90;;;;;;5017993;28;20269;-85
2022/02/21 05:53:07;;;;;;;12.40;2.33;;;4.80;99.90;;;;;;5018205;28;20213;-84
2022/02/21 05:55:33;;;;;;;10.57;2.07;;;4.80;99.90;;;;;;5035570;28;20228;-85
2022/02/21 05:57:59;;;;;;;5.43;1.20;;;4.80;99.90;;;;;;5035342;28;20183;-85
2022/02/21 06:00:26;;;;;;;10.93;1.67;;;4.80;99.90;;;;;;5035699;28;20203;-85
2022/02/21 06:02:52;;;;;;;10.87;1.90;;;4.70;99.90;;;;;;5036053;28;20205;-85
2022/02/21 06:05:18;;;;;;;8.67;1.80;;;4.60;99.90;;;;;;5035761;28;20186;-84
2022/02/21 06:07:44;;;;;;;8.97;1.90;;;4.50;99.90;;;;;;5017630;28;20518;-85
2022/02/21 06:10:10;;;;;;;9.37;2.13;;;4.40;99.90;;;;;;5017752;28;20186;-85
2022/02/21 06:12:36;;;;;;;4.40;1.23;;;4.40;99.90;;;;;;5017777;28;20174;-85
2022/02/21 06:15:02;;;;;;;6.83;1.57;;;4.40;99.90;;;;;;5017425;28;20183;-86
2022/02/21 06:17:28;;;;;;;6.93;1.67;;;4.30;99.90;;;;;;5035462;28;20205;-85
2022/02/21 06:19:53;;;;;;;10.63;1.90;;;4.30;99.90;;;;;;5017821;28;20633;-85
2022/02/21 06:22:20;;;;;;;7.63;1.57;;;4.20;99.90;;;;;;5035354;28;20175;-85
2022/02/21 06:24:46;;;;;;;9.37;1.83;;;4.20;99.90;;;;;;5017244;28;20239;-85
2022/02/21 06:27:12;;;;;;;14.60;2.27;;;4.20;99.90;;;;;;5005068;28;20183;-84
2022/02/21 06:29:37;;;;;;;6.43;1.87;;;4.10;99.90;;;;;;5005478;28;20191;-83
2022/02/21 06:32:04;;;;;;;10.60;1.87;;;4.10;99.90;;;;;;5022200;28;20221;-83
2022/02/21 06:34:29;;;;;;;12.23;1.70;;;4.10;99.90;;;;;;5021621;28;20625;-84
2022/02/21 06:36:55;;;;;;;6.90;1.50;;;4.10;99.90;;;;;;5016872;28;20237;-84
2022/02/21 06:39:21;;;;;;;10.50;1.87;;;4.00;99.90;;;;;;5016227;28;20206;-84
2022/02/21 06:41:49;;;;;;;14.67;2.27;;;4.00;99.90;;;;;;5016853;28;20206;-86
2022/02/21 06:44:15;;;;;;;13.97;2.97;;;3.90;99.90;;;;;;5016720;28;20197;-85
2022/02/21 06:46:42;;;;;;;9.37;2.20;;;4.00;99.90;;;;;;5021370;28;20232;-85
2022/02/21 06:49:08;;;;;;;7.37;1.77;;;3.90;99.90;;;;;;5017088;28;20179;-84
2022/02/21 06:51:35;;;;;;;11.63;2.20;;;3.90;99.90;;;;;;5015951;28;20190;-84
2022/02/21 06:54:05;;;;;;;10.03;2.23;;;3.80;99.90;;;;;;5016880;28;20273;-83
2022/02/21 06:56:33;;;;;;;9.47;1.73;;;3.80;99.90;;;;;;5034555;28;20186;-84
2022/02/21 06:58:59;;;;;;;3.63;1.20;;;3.80;99.90;;;;;;5015852;28;20182;-84
2022/02/21 07:01:25;;;;;;;9.67;1.73;;;3.70;99.90;;;;;;5019375;28;20536;-84
2022/02/21 07:03:51;;;;;;;5.50;1.10;;;3.70;99.90;;;;;;5007647;28;20218;-85
2022/02/21 07:06:17;;;;;;;10.30;2.10;;;3.70;99.90;;;;;;5002778;28;20226;-84
2022/02/21 07:08:44;;;;;;;5.70;1.40;;;3.60;99.90;;;;;;5021746;28;20183;-85
2022/02/21 07:11:10;;;;;;;7.23;1.50;;;3.70;99.90;;;;;;5007000;28;20225;-85
2022/02/21 07:13:39;;;;;;;9.70;1.70;;;3.60;99.90;;;;;;5008770;28;20186;-85
2022/02/21 07:16:05;;;;;;;10.20;1.50;;;3.60;99.90;;;;;;5009111;28;20189;-86
2022/02/21 07:18:33;;;;;;;6.43;1.67;;;3.60;99.90;;;;;;5004830;28;20179;-86
2022/02/21 07:20:59;;;;;;;5.50;1.50;;;3.60;99.90;;;;;;5028775;28;20217;-84
2022/02/21 07:23:24;;;;;;;5.17;1.60;;;3.60;99.90;;;;;;5016677;28;20195;-84
2022/02/21 07:25:50;;;;;;;8.90;1.80;;;3.70;99.90;;;;;;5006064;28;20241;-84
2022/02/21 07:28:16;;;;;;;9.20;1.57;;;3.70;99.90;;;;;;5022217;28;20197;-84
2022/02/21 07:30:42;;;;;;;8.13;2.10;;;3.80;99.90;;;;;;5014294;28;20291;-85
2022/02/21 07:33:08;;;;;;;8.23;2.10;;;3.90;99.90;;;;;;5004279;28;20194;-84
2022/02/21 07:35:34;;;;;;;6.20;1.60;;;3.90;99.90;;;;;;5002061;28;20670;-85
2022/02/21 07:38:01;;;;;;;8.63;1.70;;;3.90;99.90;;;;;;5017034;28;20187;-85
2022/02/21 07:40:27;;;;;;;7.97;1.87;;;3.90;99.90;;;;;;5003599;28;20203;-85
2022/02/21 07:42:54;;;;;;;9.40;2.07;;;4.00;99.90;;;;;;5031852;28;20186;-83
2022/02/21 07:45:21;;;;;;;6.70;1.70;;;4.00;99.90;;;;;;5035723;28;20577;-84
2022/02/21 07:47:55;;;;;;;7.73;1.60;;;4.00;99.90;;;;;;5000645;28;20179;-85
2022/02/21 07:50:22;;;;;;;7.60;1.87;;;4.10;99.90;;;;;;5021959;28;20555;-85
2022/02/21 07:52:49;;;;;;;8.77;1.90;;;4.10;99.90;;;;;;5020223;28;20691;-84
2022/02/21 07:55:15;;;;;;;8.73;1.87;;;4.20;99.90;;;;;;5037886;28;20174;-84
2022/02/21 07:57:42;;;;;;;9.80;1.53;;;4.20;99.90;;;;;;5020129;28;20183;-84
2022/02/21 08:00:10;;;;;;;9.27;2.17;;;4.20;99.90;;;;;;5049534;28;20655;-84
2022/02/21 08:02:41;;;;;;;7.83;1.70;;;4.20;99.90;;;;;;5057688;28;20170;-85
2022/02/21 08:05:07;;;;;;;9.40;1.77;;;4.20;99.90;;;;;;5057768;28;20168;-85
2022/02/21 08:07:34;;;;;;;8.93;1.83;;;4.20;99.90;;;;;;5039890;28;20184;-85
2022/02/21 08:10:00;;;;;;;10.23;2.37;;;4.20;99.90;;;;;;5025869;28;20269;-84
2022/02/21 08:12:27;;;;;;;12.33;2.20;;;4.30;99.90;;;;;;5017720;28;20266;-83
2022/02/21 08:14:52;;;;;;;8.80;1.60;;;4.30;99.90;;;;;;5018487;28;20217;-83
2022/02/21 08:17:18;;;;;;;10.40;2.03;;;4.40;99.90;;;;;;5019942;28;20613;-83
2022/02/21 08:19:44;;;;;;;9.37;2.17;;;4.40;99.90;;;;;;5031729;28;20206;-84
2022/02/21 08:22:10;;;;;;;10.67;2.40;;;4.50;99.90;;;;;;5037749;28;20221;-86
2022/02/21 08:24:35;;;;;;;11.90;2.10;;;4.60;99.90;;;;;;5019520;28;20226;-83
2022/02/21 08:27:02;;;;;;;12.27;2.20;;;4.70;99.90;;;;;;5037500;28;20174;-84
2022/02/21 08:29:28;;;;;;;9.70;2.00;;;4.80;99.90;;;;;;5019146;28;20221;-82
2022/02/21 08:31:54;;;;;;;10.33;1.97;;;4.70;99.90;;;;;;5019399;28;20186;-84
2022/02/21 08:34:22;;;;;;;10.63;2.13;;;4.70;99.90;;;;;;5029077;28;20263;-86
2022/02/21 08:36:48;;;;;;;17.07;2.33;;;4.70;99.90;;;;;;5002423;28;20186;-85
2022/02/21 08:39:15;;;;;;;11.20;1.97;;;4.70;99.90;;;;;;5018487;28;20193;-84
2022/02/21 08:41:42;;;;;;;10.13;2.50;;;4.70;99.90;;;;;;5018738;28;20490;-83
2022/02/21 08:44:08;;;;;;;9.73;2.10;;;4.70;99.90;;;;;;4999454;28;20194;-85
2022/02/21 08:46:33;;;;;;;8.77;2.17;;;4.80;99.90;;;;;;4999836;28;20183;-84
2022/02/21 08:48:59;;;;;;;9.50;2.20;;;4.70;99.90;;;;;;4999094;28;20520;-83
2022/02/21 08:51:26;;;;;;;13.60;2.40;;;4.70;99.90;;;;;;5009701;28;20166;-83
2022/02/21 08:53:54;;;;;;;7.47;2.00;;;4.60;99.90;;;;;;5003379;28;20807;-84
2022/02/21 08:56:25;;;;;;;11.17;2.40;;;4.60;99.90;;;;;;5006084;28;20187;-84
2022/02/21 08:58:52;;;;;;;11.03;1.93;;;4.70;99.90;;;;;;5006209;28;20276;-86
2022/02/21 09:01:18;;;;;;;12.23;2.70;;;4.70;99.90;;;;;;5006479;28;20245;-83
2022/02/21 09:03:44;;;;;;;9.57;2.30;;;4.70;99.90;;;;;;5021991;28;20253;-85
2022/02/21 09:06:10;;;;;;;8.87;2.20;;;4.80;99.90;;;;;;5020696;28;20511;-85
2022/02/21 09:08:36;;;;;;;9.23;2.17;;;4.80;99.90;;;;;;5009229;28;20218;-84
2022/02/21 09:11:02;;;;;;;8.67;1.73;;;4.80;99.90;;;;;;5024775;28;20186;-85
2022/02/21 09:13:28;;;;;;;13.53;2.80;;;4.90;99.90;;;;;;5005583;28;20689;-85
2022/02/21 09:15:54;;;;;;;8.80;2.20;;;4.80;99.90;;;;;;5022575;28;20193;-87
2022/02/21 09:18:20;;;;;;;14.30;2.37;;;4.90;99.90;;;;;;4997735;28;20218;-85
2022/02/21 09:20:46;;;;;;;9.40;2.10;;;4.90;99.90;;;;;;5020376;28;20254;-88
2022/02/21 09:23:11;;;;;;;14.03;2.60;;;4.90;99.90;;;;;;5018243;28;20179;-85
2022/02/21 09:25:37;;;;;;;11.17;2.33;;;4.90;99.90;;;;;;5024019;28;20231;-86
2022/02/21 09:28:03;;;;;;;13.27;2.70;;;4.90;99.90;;;;;;5021805;28;20186;-84
2022/02/21 09:30:30;;;;;;;9.13;2.17;;;4.90;99.90;;;;;;5018408;28;20311;-85
2022/02/21 09:32:56;;;;;;;10.73;2.30;;;4.90;99.90;;;;;;5002146;28;20530;-86
2022/02/21 09:35:23;;;;;;;11.47;1.90;;;4.90;99.90;;;;;;5020325;28;20190;-84
2022/02/21 09:37:50;;;;;;;13.70;2.70;;;4.90;99.90;;;;;;5009271;28;20236;-84
2022/02/21 09:40:19;;;;;;;12.63;2.80;;;4.90;99.90;;;;;;5024000;28;20206;-85
2022/02/21 09:42:46;;;;;;;14.23;2.80;;;4.90;99.90;;;;;;5009980;28;20278;-84
2022/02/21 09:45:12;;;;;;;14.57;2.40;;;4.90;99.90;;;;;;5008335;28;20613;-84
2022/02/21 09:47:38;;;;;;;15.83;2.80;;;4.90;99.90;;;;;;5021813;28;20264;-85
2022/02/21 09:50:11;;;;;;;7.93;2.20;;;4.90;99.90;;;;;;5004243;28;20642;-87
2022/02/21 09:52:37;;;;;;;16.27;2.37;;;4.90;99.90;;;;;;5010651;28;20197;-85
2022/02/21 09:55:03;;;;;;;10.50;1.97;;;4.90;99.90;;;;;;5019384;28;20175;-86
2022/02/21 09:57:29;;;;;;;14.27;2.40;;;5.00;99.90;;;;;;5019526;28;20198;-85
2022/02/21 09:59:55;;;;;;;13.83;2.60;;;5.00;99.90;;;;;;5005164;28;20218;-85
2022/02/21 10:02:23;;;;;;;13.67;2.77;;;5.00;99.90;;;;;;5007447;28;20274;-84
2022/02/21 10:05:18;;;;;;;11.07;2.30;;;5.00;99.90;;;;;;5008538;28;20190;-87
2022/02/21 10:07:44;;;;;;;16.47;2.87;;;5.00;99.90;;;;;;5007638;28;20657;-85
2022/02/21 10:10:16;;;;;;;12.97;3.10;;;5.00;99.90;;;;;;5006747;28;20186;-86
2022/02/21 10:13:08;;;;;;;9.00;2.17;;;5.00;99.90;;;;;;5024209;28;20266;-86
2022/02/21 10:15:37;;;;;;;9.83;2.40;;;5.00;99.90;;;;;;5001143;28;20202;-86
2022/02/21 10:18:14;;;;;;;16.67;3.17;;;5.00;99.90;;;;;;5022532;28;20178;-85
2022/02/21 10:20:53;;;;;;;12.43;2.97;;;5.00;99.90;;;;;;5004646;28;20219;-89
2022/02/21 10:23:18;;;;;;;11.30;2.37;;;5.00;99.90;;;;;;5000850;28;20190;-85
2022/02/21 10:25:55;;;;;;;18.30;2.73;;;5.10;99.90;;;;;;4977033;28;1211847;-85
2022/02/21 10:28:28;;;;;;;10.07;2.10;;;5.10;99.90;;;;;;5007735;28;20603;-87
2022/02/21 10:31:28;;;;;;;12.57;2.30;;;5.10;99.90;;;;;;5026514;28;20245;-86
2022/02/21 10:34:04;;;;;;;14.90;2.77;;;5.10;99.90;;;;;;4983303;28;20268;-83
2022/02/21 10:36:44;;;;;;;12.63;2.40;;;5.20;99.90;;;;;;5017197;28;20262;-88
2022/02/21 10:39:18;;;;;;;8.93;2.83;;;5.20;99.90;;;;;;5005893;28;20186;-86
2022/02/21 10:41:48;;;;;;;12.10;2.60;;;5.30;99.90;;;;;;5017252;28;20187;-85
2022/02/21 10:44:23;;;;;;;9.93;2.83;;;5.40;99.90;;;;;;5009121;28;20584;-86
2022/02/21 10:47:18;;;;;;;11.27;2.67;;;5.40;99.90;;;;;;5009888;28;20298;-87
2022/02/21 10:49:50;;;;;;;10.37;2.50;;;5.40;99.90;;;;;;5019988;28;20256;-85
2022/02/21 10:52:25;;;;;;;13.93;2.63;;;5.40;99.90;;;;;;5016796;28;20190;-85
2022/02/21 10:54:52;;;;;;;9.10;2.87;;;5.40;99.90;;;;;;5031891;28;20198;-88
2022/02/21 10:57:19;;;;;;;18.10;3.13;;;5.40;99.90;;;;;;5005559;28;20202;-87
2022/02/21 10:59:47;;;;;;;10.27;2.10;;;5.30;99.90;;;;;;5029828;28;20675;-86
2022/02/21 11:02:15;;;;;;;12.53;2.60;;;5.40;99.90;;;;;;5016322;28;20193;-84
2022/02/21 11:04:42;;;;;;;10.30;2.23;;;5.40;99.90;;;;;;5016845;28;20174;-88
2022/02/21 11:07:09;;;;;;;13.93;3.03;;;5.40;99.90;;;;;;5034900;28;20266;-88
2022/02/21 11:09:38;;;;;;;13.83;2.27;;;5.40;99.90;;;;;;5034850;28;20253;-86
2022/02/21 11:12:05;;;;;;;14.20;2.87;;;5.40;99.90;;;;;;5017056;28;20200;-87
2022/02/21 11:14:32;;;;;;;9.97;2.70;;;5.30;99.90;;;;;;5016423;28;20174;-85
2022/02/21 11:17:01;;;;;;;12.70;2.50;;;5.30;99.90;;;;;;5034226;28;20210;-87
2022/02/21 11:19:27;;;;;;;9.60;2.50;;;5.20;99.90;;;;;;5034402;28;20605;-85
2022/02/21 11:21:54;;;;;;;10.70;2.50;;;5.20;99.90;;;;;;5016788;28;20197;-85
2022/02/21 11:24:25;;;;;;;12.70;2.83;;;5.20;99.90;;;;;;5016325;28;20226;-87
2022/02/21 11:27:28;;;;;;;11.40;2.37;;;5.10;99.90;;;;;;5030480;28;20182;-87
2022/02/21 11:30:08;;;;;;;15.27;2.97;;;5.10;99.90;;;;;;5034391;28;20489;-86
2022/02/21 11:32:36;;;;;;;9.83;2.00;;;5.10;99.90;;;;;;5017107;28;20166;-86
2022/02/21 11:35:13;;;;;;;12.37;2.40;;;5.10;99.90;;;;;;5034462;28;20204;-87
2022/02/21 11:37:39;;;;;;;10.47;2.37;;;5.10;99.90;;;;;;5016788;28;20229;-87
2022/02/21 11:40:06;;;;;;;12.03;2.60;;;5.10;99.90;;;;;;5016658;28;20213;-87
2022/02/21 11:42:33;;;;;;;9.27;2.40;;;5.10;99.90;;;;;;5033473;28;20182;-87
2022/02/21 11:45:01;;;;;;;10.33;2.00;;;5.10;99.90;;;;;;5034101;28;20178;-88
2022/02/21 11:47:32;;;;;;;8.77;2.20;;;5.10;99.90;;;;;;5016699;28;20236;-86
2022/02/21 11:49:59;;;;;;;10.17;2.60;;;5.10;99.90;;;;;;5016435;28;20233;-87
2022/02/21 11:52:31;;;;;;;8.90;2.47;;;5.10;99.90;;;;;;5034189;28;20213;-87
2022/02/21 11:54:58;;;;;;;15.13;2.47;;;5.10;99.90;;;;;;5015793;28;20186;-87
2022/02/21 11:57:28;;;;;;;14.97;2.97;;;5.10;99.90;;;;;;5034227;28;20186;-86
2022/02/21 11:59:54;;;;;;;14.00;2.87;;;5.20;99.90;;;;;;5016092;28;20654;-86
2022/02/21 12:02:21;;;;;;;12.27;2.00;;;5.20;99.90;;;;;;5016341;28;20648;-85
2022/02/21 12:04:56;;;;;;;11.53;2.40;;;5.10;99.90;;;;;;5016454;28;20171;-86
2022/02/21 12:07:37;;;;;;;13.77;3.07;;;5.10;99.90;;;;;;5013634;28;20234;-87
2022/02/21 12:10:21;;;;;;;11.10;2.50;;;5.10;99.90;;;;;;5031140;28;20254;-86
2022/02/21 12:12:53;;;;;;;11.73;2.73;;;5.10;99.90;;;;;;5034072;28;20166;-86
2022/02/21 12:15:21;;;;;;;15.70;2.50;;;5.10;99.90;;;;;;5016259;28;20204;-87
2022/02/21 12:17:47;;;;;;;8.07;1.83;;;5.00;99.90;;;;;;5032128;28;20636;-86
2022/02/21 12:20:28;;;;;;;10.47;2.33;;;5.00;99.90;;;;;;5015157;28;20215;-87
2022/02/21 12:23:17;;;;;;;8.67;1.90;;;4.80;99.90;;;;;;5034118;28;20202;-86
2022/02/21 12:26:06;;;;;;;9.43;2.30;;;4.60;99.90;;;;;;5025043;28;20238;-87
2022/02/21 12:28:32;;;;;;;8.27;2.00;;;4.60;99.90;;;;;;5019792;28;20174;-86
2022/02/21 12:30:59;;;;;;;12.37;2.40;;;4.50;99.90;;;;;;5019508;28;20194;-87
2022/02/21 12:33:27;;;;;;;7.37;2.23;;;4.50;99.90;;;;;;5019559;28;20205;-89
2022/02/21 12:35:57;;;;;;;9.77;2.40;;;4.50;99.90;;;;;;5020231;28;20629;-86
2022/02/21 12:38:24;;;;;;;8.90;2.00;;;4.50;99.90;;;;;;5019956;28;20179;-86
2022/02/21 12:41:12;;;;;;;8.03;2.00;;;4.40;99.90;;;;;;5019901;28;20214;-87
2022/02/21 12:43:58;;;;;;;6.50;1.70;;;4.30;99.90;;;;;;5020063;28;20177;-86
2022/02/21 12:46:33;;;;;;;10.67;1.67;;;4.30;99.90;;;;;;5019516;28;20617;-86
2022/02/21 12:48:59;;;;;;;5.53;1.43;;;4.30;99.90;;;;;;5037419;28;20249;-85
2022/02/21 12:51:33;;;;;;;6.70;1.63;;;4.30;99.90;;;;;;5017838;28;20192;-88
2022/02/21 12:54:02;;;;;;;8.83;2.33;;;4.30;99.90;;;;;;5020548;28;20233;-86
2022/02/21 12:56:30;;;;;;;9.17;2.27;;;4.20;99.90;;;;;;5019420;28;20183;-86
2022/02/21 12:58:57;;;;;;;10.17;2.13;;;4.20;99.90;;;;;;5036912;28;20175;-85
2022/02/21 13:01:23;;;;;;;5.27;1.70;;;4.10;99.90;;;;;;5037012;28;20213;-85